• Join FlightAware (Why Join?)
  • Login
  • US Flag 
05:50PM EDT


 

Airport Tracker/Info


-or-


 

Live Flight TrackerFlight Track Log ✈ SWA1435 ✈ 01-Mar-2014 ✈ KJAX - KFLL

Flight Track Log - Related Links

Times and Time Zones

All times are in EST time to prevent confusion due to time zone crossing. See the SWA1435 flight status page for this flight to view local times or setup timezone preferences in your user account.

Time Position Orientation Groundspeed Altitude Reporting Facility
EST Latitude Longitude Course Direction KTS MPH feet Rate Location/Type
07:52AM 30.4886 -81.6994 244° Southwest 137 158 600  Level Jacksonville Center
07:53AM 30.4742 -81.7333 243° Southwest 211 243 1,900 3,360 Climbing Jacksonville Center
07:53AM 30.4469 -81.7311 176° South 214 246 4,700 3,480 Climbing Jacksonville Center
07:54AM 30.4344 -81.7119 127° Southeast 250 288 5,400 2,880 Climbing Jacksonville Center
07:54AM 30.4006 -81.6692 133° Southeast 278 320 7,600 3,480 Climbing Jacksonville Center
07:55AM 30.3708 -81.6333 134° Southeast 300 345 8,900 3,720 Climbing Jacksonville Center
07:56AM 30.3158 -81.5594 131° Southeast 338 389 13,000 3,720 Climbing Jacksonville Center
07:58AM 30.1761 -81.3739 131° Southeast 370 426 20,100 3,360 Climbing Jacksonville Center
07:59AM 30.0933 -81.2672 132° Southeast 412 474 23,200 3,000 Climbing Jacksonville Center
08:00AM 29.9942 -81.1828 144° Southeast 440 506 26,200 2,580 Climbing Jacksonville Center
08:01AM 29.8583 -81.1706 176° South 440 506 28,400 2,100 Climbing Jacksonville Center
08:02AM 29.7244 -81.1564 175° South 460 529 30,400 2,100 Climbing Jacksonville Center
08:03AM 29.5822 -81.1444 176° South 490 564 32,600 2,400 Climbing Jacksonville Center
08:05AM 29.3367 -81.1192 175° South 502 578 37,400 2,220 Climbing Miami Center
08:06AM 29.2225 -81.0292 145° Southeast 484 557 39,100 1,260 Climbing Miami Center
08:07AM 29.1194 -80.9183 137° Southeast 484 557 40,000 420 Climbing Miami Center
08:08AM 28.9989 -80.8333 148° Southeast 497 572 40,000  Level Miami Center
08:09AM 28.8819 -80.7581 151° Southeast 497 572 40,000  Level Miami Center
08:10AM 28.7486 -80.6728 151° Southeast 492 566 40,000  Level Miami Center
08:11AM 28.6317 -80.5981 151° Southeast 492 566 40,000  Level Miami Center
08:12AM 28.5086 -80.5228 152° Southeast 492 566 40,000  Level Miami Center
08:13AM 28.4017 -80.4533 150° Southeast 492 566 40,000  Level Miami Center
08:14AM 28.2825 -80.3789 151° Southeast 492 566 40,000  Level Miami Center
08:15AM 28.1531 -80.2969 151° Southeast 487 560 40,000 -480 Level Miami Center
08:16AM 28.0317 -80.2228 152° Southeast 487 560 39,100 -1,740 Descending Miami Center
08:17AM 27.9144 -80.1467 150° Southeast 487 560 36,600 -2,820 Descending Miami Center
08:18AM 27.7886 -80.0747 153° Southeast 487 560 33,500 -2,760 Descending Miami Center
08:19AM 27.6672 -79.9986 151° Southeast 492 566 31,100 -2,400 Descending Miami Center
08:20AM 27.5436 -79.9228 151° Southeast 492 566 28,700 -2,400 Descending Miami Center
08:21AM 27.4303 -79.8494 150° Southeast 486 559 26,300 -2,220 Descending Miami Center
08:22AM 27.3061 -79.7994 160° South 473 544 24,300 -1,980 Descending Miami Center
08:23AM 27.1978 -79.7806 171° South 454 522 22,400 -2,160 Descending Miami Center
08:24AM 27.0689 -79.7492 168° South 438 504 20,000 -2,280 Descending Miami Center
08:25AM 26.9544 -79.7278 171° South 432 497 17,900 -2,100 Descending Miami Center
08:26AM 26.8422 -79.7042 169° South 412 474 15,900 -2,100 Descending Miami Center
08:27AM 26.7403 -79.6900 173° South 402 463 13,700 -2,160 Descending Miami Center
08:28AM 26.6536 -79.7319 203° Southwest 335 386 11,600 -1,800 Descending Miami Center
08:29AM 26.5694 -79.7717 203° Southwest 340 391 10,200 -1,380 Descending Miami Center
08:29AM 26.5589 -79.7761 201° Southwest 329 379 10,100 -1,320 Descending Miami Center
08:30AM 26.4914 -79.8069 202° Southwest 314 361 8,900 -1,200 Descending Miami Center
08:31AM 26.4217 -79.8425 205° Southwest 293 337 8,000 -900 Descending Miami Center
08:31AM 26.4175 -79.8400 152° Southeast 303 349 8,000  Level Miami Center
08:32AM 26.3519 -79.8892 214° Southwest 288 331 8,000 -480 Level Miami Center
08:33AM 26.2986 -79.9411 221° Southwest 283 326 7,200 -900 Descending Miami Center
08:33AM 26.2922 -79.9458 214° Southwest 288 331 7,100 -1,020 Descending Miami Center
08:34AM 26.2389 -79.9975 221° Southwest 279 321 6,200 -1,140 Descending Miami Center
08:34AM 26.2344 -80.0022 224° Southwest 288 331 6,000 -240 Descending Miami Center
08:35AM 26.1856 -80.0494 221° Southwest 276 318 6,000  Level Miami Center
08:35AM 26.1789 -80.0608 237° Southwest 283 326 6,000 -300 Level Miami Center
08:36AM 26.1589 -80.1181 249° West 233 268 5,700 -540 Descending Miami Center
08:36AM 26.1567 -80.1297 258° West 246 283 5,500 -1,140 Descending Miami Center
08:37AM 26.1469 -80.1850 259° West 220 253 4,600 -1,320 Descending Miami Center
08:37AM 26.1486 -80.1989 278° West 239 275 4,200 -1,800 Descending Miami Center
08:38AM 26.1475 -80.2519 269° West 230 265 3,000 -1,320 Descending Miami Center
08:38AM 26.1492 -80.2683 276° West 228 262 2,900 -720 Descending Miami Center
08:39AM 26.1172 -80.2928 214° Southwest 205 236 2,300 -900 Descending Miami Center
08:39AM 26.1047 -80.2903 170° South 160 184 2,000 -840 Descending Miami Center
08:40AM 26.0761 -80.2639 140° Southeast 158 182 1,500 -600 Descending Miami Center
08:41AM 26.0753 -80.2175 91° East 133 153 900 -540 Descending Miami Center
08:43AM 26.0667 -80.1500 103° East  Level FlightAware Approximate
08:50AM 26.0726 -80.1527 103° East  Level Estimated